Time;durP1;ratioP1;P1;durP2;ratioP2;P2;SDS_P1;SDS_P2;PMS_P1;PMS_P2;Temp;Humidity;BMP_temperature;BMP_pressure;BME280_temperature;BME280_humidity;BME280_pressure;Samples;Min_cycle;Max_cycle;Signal;HPM_P1;HPM_P2
2022/01/28 00:00:32;;;;;;;13.60;3.50;;;;;;;;;;5052186;28;20801;-58
2022/01/28 00:03:04;;;;;;;11.23;3.53;;;;;;;;;;5052135;28;20522;-58
2022/01/28 00:05:31;;;;;;;10.43;2.93;;;;;;;;;;5052104;28;20509;-58
2022/01/28 00:07:57;;;;;;;9.50;3.20;;;;;;;;;;5052120;28;20917;-58
2022/01/28 00:10:24;;;;;;;13.97;3.53;;;;;;;;;;5052018;28;20851;-59
2022/01/28 00:15:40;;;;;;;12.30;3.13;;;;;;;;;;5052091;28;20484;-58
2022/01/28 00:18:34;;;;;;;14.50;3.23;;;;;;;;;;5052192;28;20471;-57
2022/01/28 00:39:44;;;;;;;13.97;3.53;;;;;;;;;;5055088;28;20528;-59
2022/01/28 00:42:11;;;;;;;14.43;3.60;;;;;;;;;;5055295;28;20509;-59
2022/01/28 00:44:38;;;;;;;13.70;3.37;;;;;;;;;;5055104;28;20442;-68
2022/01/28 00:47:04;;;;;;;8.50;3.60;;;;;;;;;;5055052;28;20470;-71
2022/01/28 00:49:30;;;;;;;14.20;3.97;;;;;;;;;;5054986;28;20490;-71
2022/01/28 00:51:56;;;;;;;15.30;3.80;;;;;;;;;;5055088;28;20443;-72
2022/01/28 00:54:23;;;;;;;16.17;3.53;;;;;;;;;;5054915;28;20423;-72
2022/01/28 00:56:49;;;;;;;12.97;3.60;;;;;;;;;;5054957;28;20449;-70
2022/01/28 00:59:17;;;;;;;17.20;4.20;;;;;;;;;;5054615;28;20487;-71
2022/01/28 01:01:43;;;;;;;14.47;3.37;;;;;;;;;;5054807;28;20810;-71
2022/01/28 01:04:09;;;;;;;12.37;3.60;;;;;;;;;;5054531;28;20974;-72
2022/01/28 01:06:35;;;;;;;16.73;3.97;;;;;;;;;;5054766;28;20435;-72
2022/01/28 01:09:01;;;;;;;12.13;3.60;;;;;;;;;;5054809;28;20466;-70
2022/01/28 01:11:28;;;;;;;15.90;3.77;;;;;;;;;;5054382;28;20975;-71
2022/01/28 01:13:54;;;;;;;19.07;3.80;;;;;;;;;;5054820;28;20527;-70
2022/01/28 01:16:40;;;;;;;12.03;3.63;;;;;;;;;;5054559;28;20568;-72
2022/01/28 01:21:40;;;;;;;12.50;3.63;;;;;;;;;;5054409;28;20488;-73
2022/01/28 01:24:08;;;;;;;12.90;3.67;;;;;;;;;;5054560;28;20442;-73
2022/01/28 01:26:38;;;;;;;16.10;3.97;;;;;;;;;;5054335;28;20443;-73
2022/01/28 01:29:07;;;;;;;19.90;4.63;;;;;;;;;;5054336;28;20442;-70
2022/01/28 01:31:35;;;;;;;11.03;2.83;;;;;;;;;;5054081;28;20493;-72
2022/01/28 01:34:10;;;;;;;17.87;3.60;;;;;;;;;;5054366;28;20434;-72
2022/01/28 01:36:36;;;;;;;13.43;4.37;;;;;;;;;;5054170;28;20812;-72
2022/01/28 01:39:03;;;;;;;10.90;3.23;;;;;;;;;;5054271;28;20487;-72
2022/01/28 01:41:37;;;;;;;13.03;3.17;;;;;;;;;;5053652;28;20215;-72
2022/01/28 01:44:23;;;;;;;16.20;3.60;;;;;;;;;;5054014;28;20938;-74
2022/01/28 01:52:29;;;;;;;17.60;4.20;;;;;;;;;;5090174;28;20425;-74
2022/01/28 01:54:55;;;;;;;11.07;3.17;;;;;;;;;;5090182;28;20429;-74
2022/01/28 01:57:22;;;;;;;12.43;3.87;;;;;;;;;;5090039;28;20194;-72
2022/01/28 01:59:48;;;;;;;16.83;4.10;;;;;;;;;;5089690;28;20492;-71
2022/01/28 02:02:14;;;;;;;16.27;4.47;;;;;;;;;;5089914;28;20440;-67
2022/01/28 02:04:40;;;;;;;17.73;3.53;;;;;;;;;;5089891;28;20488;-70
2022/01/28 02:07:08;;;;;;;13.40;3.90;;;;;;;;;;5089924;28;20512;-69
2022/01/28 02:09:34;;;;;;;15.33;4.93;;;;;;;;;;5089624;28;20491;-71
2022/01/28 02:12:00;;;;;;;16.03;4.63;;;;;;;;;;5089846;28;20924;-71
2022/01/28 02:14:26;;;;;;;15.53;4.20;;;;;;;;;;5089755;28;20440;-71
2022/01/28 02:16:52;;;;;;;14.17;5.13;;;;;;;;;;5089695;28;20926;-72
2022/01/28 02:19:18;;;;;;;12.20;3.63;;;;;;;;;;5089779;28;20426;-72
2022/01/28 02:21:49;;;;;;;12.60;4.07;;;;;;;;;;5089654;28;20248;-73
2022/01/28 02:24:20;;;;;;;17.63;4.80;;;;;;;;;;5089610;28;20802;-71
2022/01/28 02:26:46;;;;;;;15.37;4.40;;;;;;;;;;5089463;28;20467;-73
2022/01/28 02:29:15;;;;;;;11.47;3.20;;;;;;;;;;5089395;28;20516;-73
2022/01/28 02:31:42;;;;;;;11.87;3.03;;;;;;;;;;5089255;28;20658;-73
2022/01/28 02:34:11;;;;;;;9.23;3.27;;;;;;;;;;5089453;28;20453;-74
2022/01/28 02:36:37;;;;;;;13.93;3.50;;;;;;;;;;5089234;28;20919;-73
2022/01/28 02:39:06;;;;;;;16.03;3.03;;;;;;;;;;5089316;28;20445;-72
2022/01/28 02:41:37;;;;;;;11.20;3.03;;;;;;;;;;5089078;28;20789;-71
2022/01/28 02:46:32;;;;;;;11.23;2.70;;;;;;;;;;5088986;28;20454;-74
2022/01/28 02:49:05;;;;;;;13.17;2.83;;;;;;;;;;5088828;28;20543;-73
2022/01/28 02:51:32;;;;;;;14.97;3.13;;;;;;;;;;5088904;28;20934;-74
2022/01/28 02:54:00;;;;;;;13.27;3.40;;;;;;;;;;5089110;28;20486;-73
2022/01/28 02:56:37;;;;;;;12.43;3.23;;;;;;;;;;5088853;28;20429;-74
2022/01/28 02:59:03;;;;;;;6.80;3.10;;;;;;;;;;5086774;28;20433;-73
2022/01/28 03:01:29;;;;;;;13.10;3.27;;;;;;;;;;5075001;28;20505;-73
2022/01/28 03:03:57;;;;;;;10.30;3.37;;;;;;;;;;5075232;28;20493;-73
2022/01/28 03:06:23;;;;;;;10.97;3.20;;;;;;;;;;5075169;28;20199;-72
2022/01/28 03:09:06;;;;;;;13.60;3.03;;;;;;;;;;5075164;28;20482;-72
2022/01/28 03:14:18;;;;;;;14.70;3.63;;;;;;;;;;5075222;28;20499;-72
2022/01/28 03:17:48;;;;;;;14.97;3.30;;;;;;;;;;5074967;28;21009;-72
2022/01/28 03:19:52;;;;;;;10.50;3.00;;;;;;;;;;5073710;28;20438;-72
2022/01/28 03:22:18;;;;;;;10.20;2.77;;;;;;;;;;5074989;28;20426;-73
2022/01/28 03:24:48;;;;;;;12.03;2.80;;;;;;;;;;5074860;28;20438;-73
2022/01/28 03:27:28;;;;;;;7.93;2.70;;;;;;;;;;5074886;28;20465;-74
2022/01/28 03:29:54;;;;;;;10.33;2.97;;;;;;;;;;5074743;28;20480;-73
2022/01/28 03:32:20;;;;;;;8.33;2.90;;;;;;;;;;5074685;28;20431;-72
2022/01/28 03:34:46;;;;;;;7.00;3.17;;;;;;;;;;5074658;28;20437;-71
2022/01/28 03:37:12;;;;;;;7.30;2.93;;;;;;;;;;5074808;28;20192;-73
2022/01/28 03:39:38;;;;;;;7.80;2.40;;;;;;;;;;5074558;28;20445;-73
2022/01/28 03:42:05;;;;;;;7.10;2.60;;;;;;;;;;5074594;28;20944;-72
2022/01/28 03:44:32;;;;;;;8.80;2.87;;;;;;;;;;5074349;28;20623;-72
2022/01/28 03:46:58;;;;;;;9.07;3.10;;;;;;;;;;5074465;28;20442;-73
2022/01/28 03:49:24;;;;;;;10.67;3.07;;;;;;;;;;5074262;28;20487;-74
2022/01/28 03:51:50;;;;;;;9.87;3.40;;;;;;;;;;5074325;28;20461;-76
2022/01/28 03:54:16;;;;;;;14.60;3.07;;;;;;;;;;5074356;28;20473;-74
2022/01/28 03:56:42;;;;;;;17.27;3.73;;;;;;;;;;5074204;28;20214;-73
2022/01/28 03:59:08;;;;;;;13.07;3.00;;;;;;;;;;5074324;28;20188;-72
2022/01/28 04:01:38;;;;;;;12.63;3.30;;;;;;;;;;5074076;28;20200;-72
2022/01/28 04:06:02;;;;;;;12.83;2.93;;;;;;;;;;5074154;28;20247;-73
2022/01/28 04:12:36;;;;;;;13.23;4.00;;;;;;;;;;5072865;28;20417;-71
2022/01/28 04:15:18;;;;;;;12.83;4.53;;;;;;;;;;5073951;28;20437;-73
2022/01/28 04:17:45;;;;;;;16.00;3.80;;;;;;;;;;5073861;28;20438;-72
2022/01/28 04:20:11;;;;;;;13.17;3.30;;;;;;;;;;5073925;28;20452;-71
2022/01/28 04:22:37;;;;;;;13.30;4.40;;;;;;;;;;5073738;28;20441;-73
2022/01/28 04:25:03;;;;;;;14.10;3.90;;;;;;;;;;5073803;28;20449;-71
2022/01/28 04:27:29;;;;;;;11.70;3.50;;;;;;;;;;5073581;28;20199;-73
2022/01/28 04:29:55;;;;;;;15.37;3.23;;;;;;;;;;5073798;28;20430;-73
2022/01/28 04:32:23;;;;;;;11.03;3.60;;;;;;;;;;5073452;28;20796;-72
2022/01/28 04:34:53;;;;;;;10.80;3.43;;;;;;;;;;5073574;28;20434;-73
2022/01/28 04:37:33;;;;;;;11.00;4.13;;;;;;;;;;5073469;28;20939;-72
2022/01/28 04:47:54;;;;;;;11.67;3.60;;;;;;;;;;5073155;28;20448;-72
2022/01/28 04:50:36;;;;;;;16.90;3.77;;;;;;;;;;5072924;28;20436;-71
2022/01/28 04:56:30;;;;;;;15.33;4.43;;;;;;;;;;5073181;28;20518;-72
2022/01/28 05:03:47;;;;;;;20.80;4.43;;;;;;;;;;5072882;28;20353;-72
2022/01/28 05:11:38;;;;;;;14.30;3.73;;;;;;;;;;5072864;28;20948;-67
2022/01/28 05:25:01;;;;;;;11.00;3.40;;;;;;;;;;5072673;28;20428;-70
2022/01/28 05:27:18;;;;;;;11.87;3.40;;;;;;;;;;5072606;28;20434;-70
2022/01/28 05:29:44;;;;;;;10.17;3.50;;;;;;;;;;5072784;28;20565;-70
2022/01/28 05:32:10;;;;;;;13.73;4.10;;;;;;;;;;5072648;28;20442;-70
2022/01/28 05:34:36;;;;;;;14.17;3.60;;;;;;;;;;5072897;28;20448;-70
2022/01/28 05:37:04;;;;;;;12.40;3.13;;;;;;;;;;5072697;28;20831;-70
2022/01/28 05:39:30;;;;;;;7.00;3.00;;;;;;;;;;5072609;28;20442;-70
2022/01/28 05:41:56;;;;;;;12.53;3.17;;;;;;;;;;5072490;28;20433;-71
2022/01/28 05:44:23;;;;;;;9.10;2.97;;;;;;;;;;5072627;28;20783;-68
2022/01/28 05:46:49;;;;;;;10.10;3.13;;;;;;;;;;5072355;28;20204;-68
2022/01/28 05:49:16;;;;;;;6.87;2.33;;;;;;;;;;5072164;28;20936;-68
2022/01/28 05:51:42;;;;;;;7.30;2.40;;;;;;;;;;5072398;28;20434;-69
2022/01/28 05:54:09;;;;;;;7.83;2.60;;;;;;;;;;5072394;28;20438;-70
2022/01/28 05:56:35;;;;;;;11.07;2.93;;;;;;;;;;5072301;28;20717;-70
2022/01/28 05:59:01;;;;;;;9.43;2.20;;;;;;;;;;5072515;28;20441;-72
2022/01/28 06:01:27;;;;;;;9.77;2.93;;;;;;;;;;5072388;28;20434;-70
2022/01/28 06:03:53;;;;;;;12.50;2.80;;;;;;;;;;5072227;28;20892;-71
2022/01/28 06:06:21;;;;;;;9.47;2.67;;;;;;;;;;5072278;28;20430;-70
2022/01/28 06:08:47;;;;;;;7.63;2.30;;;;;;;;;;5072050;28;20466;-70
2022/01/28 06:11:15;;;;;;;8.27;2.73;;;;;;;;;;5072258;28;20426;-70
2022/01/28 06:13:41;;;;;;;10.80;3.07;;;;;;;;;;5071911;28;20453;-70
2022/01/28 06:16:07;;;;;;;9.53;2.60;;;;;;;;;;5072145;28;20441;-70
2022/01/28 06:18:33;;;;;;;8.17;2.50;;;;;;;;;;5071987;28;20434;-70
2022/01/28 06:20:59;;;;;;;11.70;2.90;;;;;;;;;;5072212;28;20204;-70
2022/01/28 06:23:25;;;;;;;8.27;2.83;;;;;;;;;;5072002;28;20487;-70
2022/01/28 06:25:51;;;;;;;10.10;3.20;;;;;;;;;;5072051;28;20277;-70
2022/01/28 06:28:18;;;;;;;12.23;3.30;;;;;;;;;;5072025;28;20247;-69
2022/01/28 06:30:44;;;;;;;13.77;3.47;;;;;;;;;;5072036;28;20520;-71
2022/01/28 06:33:11;;;;;;;12.10;3.17;;;;;;;;;;5071975;28;20521;-72
2022/01/28 06:35:37;;;;;;;13.10;3.10;;;;;;;;;;5074185;28;20713;-71
2022/01/28 06:38:03;;;;;;;11.87;3.10;;;;;;;;;;5075756;28;20529;-71
2022/01/28 06:40:29;;;;;;;14.10;3.50;;;;;;;;;;5075653;28;20192;-71
2022/01/28 06:42:55;;;;;;;10.57;2.90;;;;;;;;;;5075680;28;20442;-72
2022/01/28 06:45:22;;;;;;;11.70;3.73;;;;;;;;;;5075511;28;20445;-71
2022/01/28 06:47:48;;;;;;;11.90;3.23;;;;;;;;;;5075198;28;20476;-72
2022/01/28 06:50:14;;;;;;;17.70;3.67;;;;;;;;;;5075982;28;20442;-71
2022/01/28 06:52:42;;;;;;;11.53;3.50;;;;;;;;;;5075649;28;20195;-71
2022/01/28 06:55:09;;;;;;;12.97;3.73;;;;;;;;;;5075869;28;20483;-71
2022/01/28 06:57:35;;;;;;;10.60;3.23;;;;;;;;;;5075390;28;20444;-71
2022/01/28 07:00:01;;;;;;;16.77;3.23;;;;;;;;;;5075469;28;20429;-70
2022/01/28 07:02:28;;;;;;;10.60;3.40;;;;;;;;;;5075345;28;20963;-71
2022/01/28 07:04:54;;;;;;;12.73;3.50;;;;;;;;;;5075315;28;20446;-71
2022/01/28 07:07:22;;;;;;;15.70;3.47;;;;;;;;;;5075394;28;20438;-72
2022/01/28 07:09:48;;;;;;;13.43;3.60;;;;;;;;;;5075341;28;20477;-72
2022/01/28 07:12:15;;;;;;;12.93;3.53;;;;;;;;;;5075247;28;20444;-70
2022/01/28 07:14:41;;;;;;;21.80;4.03;;;;;;;;;;5075073;28;20464;-71
2022/01/28 07:17:07;;;;;;;13.23;3.63;;;;;;;;;;5075104;28;20441;-73
2022/01/28 07:19:34;;;;;;;10.03;3.30;;;;;;;;;;5074961;28;20430;-70
2022/01/28 07:22:00;;;;;;;23.40;4.60;;;;;;;;;;5075021;28;20211;-72
2022/01/28 07:24:26;;;;;;;14.07;3.60;;;;;;;;;;5074932;28;20437;-72
2022/01/28 07:26:52;;;;;;;12.23;3.77;;;;;;;;;;5074867;28;20278;-70
2022/01/28 07:29:19;;;;;;;18.13;4.37;;;;;;;;;;5074801;28;20552;-72
2022/01/28 07:31:45;;;;;;;14.10;3.63;;;;;;;;;;5074733;28;20438;-71
2022/01/28 07:34:11;;;;;;;17.77;3.40;;;;;;;;;;5074866;28;20469;-72
2022/01/28 07:36:39;;;;;;;17.73;3.93;;;;;;;;;;5074615;28;20936;-71
2022/01/28 07:39:07;;;;;;;12.93;3.63;;;;;;;;;;5074704;28;20200;-71
2022/01/28 07:41:33;;;;;;;15.17;4.20;;;;;;;;;;5074554;28;20432;-71
2022/01/28 07:43:59;;;;;;;17.60;4.33;;;;;;;;;;5074259;28;20450;-72
2022/01/28 07:46:25;;;;;;;18.53;4.53;;;;;;;;;;5074123;28;20470;-71
2022/01/28 07:48:51;;;;;;;20.90;4.30;;;;;;;;;;5074128;28;20975;-72
2022/01/28 07:51:17;;;;;;;15.87;4.03;;;;;;;;;;5074390;28;20286;-71
2022/01/28 07:53:44;;;;;;;14.13;4.03;;;;;;;;;;5074332;28;20195;-71
2022/01/28 07:56:12;;;;;;;18.40;4.17;;;;;;;;;;5074387;28;20503;-71
2022/01/28 07:58:38;;;;;;;13.10;4.50;;;;;;;;;;5074169;28;20525;-71
2022/01/28 08:01:04;;;;;;;18.53;4.50;;;;;;;;;;5074069;28;20441;-72
2022/01/28 08:03:30;;;;;;;12.70;4.27;;;;;;;;;;5074070;28;20465;-71
2022/01/28 08:05:56;;;;;;;17.97;4.80;;;;;;;;;;5074177;28;20192;-73
2022/01/28 08:08:22;;;;;;;9.93;3.73;;;;;;;;;;5074170;28;20227;-72
2022/01/28 08:10:49;;;;;;;16.87;4.47;;;;;;;;;;5072812;28;20214;-73
2022/01/28 08:13:15;;;;;;;15.60;3.97;;;;;;;;;;5074046;28;20203;-73
2022/01/28 08:15:41;;;;;;;20.37;4.60;;;;;;;;;;5073727;28;20529;-74
2022/01/28 08:18:08;;;;;;;12.40;4.10;;;;;;;;;;5073890;28;20437;-75
2022/01/28 08:20:34;;;;;;;13.17;3.37;;;;;;;;;;5073680;28;20434;-73
2022/01/28 08:23:01;;;;;;;15.40;4.20;;;;;;;;;;5073690;28;20923;-73
2022/01/28 08:25:28;;;;;;;14.20;3.73;;;;;;;;;;5073761;28;20458;-75
2022/01/28 08:27:55;;;;;;;19.03;4.77;;;;;;;;;;5073572;28;20438;-72
2022/01/28 08:30:22;;;;;;;19.07;3.97;;;;;;;;;;5073543;28;20958;-74
2022/01/28 08:32:49;;;;;;;14.50;4.27;;;;;;;;;;5073546;28;20438;-69
2022/01/28 08:35:15;;;;;;;11.83;3.63;;;;;;;;;;5073730;28;20450;-73
2022/01/28 08:37:41;;;;;;;12.30;4.13;;;;;;;;;;5073428;28;20446;-66
2022/01/28 08:40:09;;;;;;;14.90;4.20;;;;;;;;;;5073531;28;20422;-68
2022/01/28 08:42:35;;;;;;;11.07;3.77;;;;;;;;;;5073052;28;20966;-69
2022/01/28 08:45:03;;;;;;;16.43;4.40;;;;;;;;;;5073418;28;20487;-67
2022/01/28 08:47:29;;;;;;;11.53;3.60;;;;;;;;;;5073090;28;20446;-70
2022/01/28 08:49:55;;;;;;;17.47;3.60;;;;;;;;;;5073031;28;20931;-69
2022/01/28 08:52:21;;;;;;;23.23;4.30;;;;;;;;;;5073217;28;20192;-67
2022/01/28 08:54:47;;;;;;;21.60;3.67;;;;;;;;;;5073150;28;20206;-67
2022/01/28 08:57:13;;;;;;;14.57;4.27;;;;;;;;;;5072770;28;20489;-67
2022/01/28 08:59:40;;;;;;;17.60;4.73;;;;;;;;;;5072932;28;20422;-67
2022/01/28 09:02:07;;;;;;;13.67;3.67;;;;;;;;;;5073233;28;20434;-69
2022/01/28 09:04:33;;;;;;;18.10;4.20;;;;;;;;;;5072926;28;20484;-69
2022/01/28 09:06:59;;;;;;;23.10;5.00;;;;;;;;;;5069989;28;20932;-66
2022/01/28 09:09:25;;;;;;;17.97;5.37;;;;;;;;;;5070297;28;20231;-66
2022/01/28 09:14:24;;;;;;;19.67;4.00;;;;;;;;;;5073136;28;20487;-67
2022/01/28 09:16:52;;;;;;;14.57;4.57;;;;;;;;;;5072953;28;20434;-65
2022/01/28 09:19:19;;;;;;;16.83;4.33;;;;;;;;;;5073252;28;20438;-67
2022/01/28 09:21:45;;;;;;;14.83;3.97;;;;;;;;;;5070836;28;20932;-65
2022/01/28 09:24:11;;;;;;;11.87;3.70;;;;;;;;;;5072885;28;20532;-71
2022/01/28 09:26:37;;;;;;;17.97;4.43;;;;;;;;;;5072607;28;20199;-70
2022/01/28 09:29:04;;;;;;;16.37;4.03;;;;;;;;;;5072296;28;20219;-69
2022/01/28 09:31:30;;;;;;;18.20;4.10;;;;;;;;;;5072587;28;20426;-70
2022/01/28 09:33:56;;;;;;;14.17;3.77;;;;;;;;;;5072569;28;20438;-70
2022/01/28 09:36:23;;;;;;;17.33;4.20;;;;;;;;;;5072356;28;20928;-70
2022/01/28 09:38:49;;;;;;;17.67;4.23;;;;;;;;;;5072484;28;20199;-70
2022/01/28 09:41:16;;;;;;;13.27;4.30;;;;;;;;;;5072519;28;20445;-71
2022/01/28 09:43:43;;;;;;;17.00;4.10;;;;;;;;;;5072440;28;20202;-71
2022/01/28 09:46:09;;;;;;;14.17;4.57;;;;;;;;;;5072369;28;20203;-71
2022/01/28 09:48:35;;;;;;;16.60;4.47;;;;;;;;;;5072100;28;20837;-70
2022/01/28 09:51:02;;;;;;;17.03;3.93;;;;;;;;;;5072593;28;20206;-71
2022/01/28 09:53:29;;;;;;;16.33;3.83;;;;;;;;;;5072500;28;20556;-70
2022/01/28 09:55:55;;;;;;;13.57;3.93;;;;;;;;;;5072311;28;20700;-71
2022/01/28 09:58:21;;;;;;;14.83;3.80;;;;;;;;;;5072359;28;20592;-71
2022/01/28 10:00:47;;;;;;;12.50;3.73;;;;;;;;;;5072203;28;20199;-72
2022/01/28 10:03:14;;;;;;;13.53;3.80;;;;;;;;;;5072251;28;20753;-69
2022/01/28 10:05:42;;;;;;;14.63;3.80;;;;;;;;;;5066107;28;20204;-66
2022/01/28 10:08:09;;;;;;;15.90;3.70;;;;;;;;;;5072109;28;20199;-66
2022/01/28 10:10:44;;;;;;;16.07;3.97;;;;;;;;;;5074698;28;20229;-67
2022/01/28 10:13:11;;;;;;;11.03;3.57;;;;;;;;;;5074378;28;20214;-67
2022/01/28 10:15:51;;;;;;;13.60;3.93;;;;;;;;;;5075877;28;20204;-68
2022/01/28 10:18:17;;;;;;;18.77;4.40;;;;;;;;;;5075834;28;20242;-70
2022/01/28 10:20:43;;;;;;;15.67;3.87;;;;;;;;;;5075828;28;20290;-72
2022/01/28 10:23:12;;;;;;;8.97;3.20;;;;;;;;;;5076128;28;20221;-68
2022/01/28 10:25:38;;;;;;;13.47;3.93;;;;;;;;;;5075697;28;20202;-73
2022/01/28 10:28:07;;;;;;;15.43;4.27;;;;;;;;;;5075725;28;20204;-69
2022/01/28 10:30:35;;;;;;;17.17;4.23;;;;;;;;;;5075771;28;20273;-72
2022/01/28 10:33:11;;;;;;;17.63;4.30;;;;;;;;;;5075858;28;20199;-71
2022/01/28 10:35:38;;;;;;;12.13;4.13;;;;;;;;;;5075715;28;20203;-71
2022/01/28 10:38:07;;;;;;;12.17;3.90;;;;;;;;;;5075345;28;20576;-72
2022/01/28 10:40:33;;;;;;;16.30;4.03;;;;;;;;;;5073478;28;20575;-71
2022/01/28 10:43:00;;;;;;;14.50;3.37;;;;;;;;;;5074603;28;20203;-73
2022/01/28 10:45:31;;;;;;;13.43;4.13;;;;;;;;;;5075530;28;20552;-71
2022/01/28 10:47:57;;;;;;;17.33;4.23;;;;;;;;;;5075052;28;20235;-71
2022/01/28 10:50:25;;;;;;;14.60;3.73;;;;;;;;;;5075207;28;20224;-73
2022/01/28 10:52:58;;;;;;;16.20;4.00;;;;;;;;;;5075200;28;20650;-73
2022/01/28 10:55:24;;;;;;;15.67;3.83;;;;;;;;;;5075241;28;20200;-74
2022/01/28 10:57:57;;;;;;;8.23;3.17;;;;;;;;;;5075009;28;20674;-74
2022/01/28 11:00:24;;;;;;;10.37;3.47;;;;;;;;;;5075021;28;20187;-74
2022/01/28 11:02:53;;;;;;;19.37;4.37;;;;;;;;;;5074832;28;20254;-74
2022/01/28 11:05:19;;;;;;;9.33;3.10;;;;;;;;;;5074964;28;20624;-71
2022/01/28 11:07:45;;;;;;;13.23;3.90;;;;;;;;;;5074883;28;20222;-75
2022/01/28 11:10:11;;;;;;;11.83;4.30;;;;;;;;;;5074850;28;20231;-76
2022/01/28 11:12:38;;;;;;;11.37;3.50;;;;;;;;;;5074817;28;20221;-75
2022/01/28 11:15:04;;;;;;;13.20;3.90;;;;;;;;;;5074655;28;20203;-73
2022/01/28 11:17:30;;;;;;;13.63;3.50;;;;;;;;;;5074639;28;20719;-73
2022/01/28 11:19:58;;;;;;;12.13;3.70;;;;;;;;;;5074456;28;20730;-74
2022/01/28 11:22:39;;;;;;;12.47;4.30;;;;;;;;;;5074326;28;20274;-74
2022/01/28 11:25:35;;;;;;;10.37;3.10;;;;;;;;;;5074989;28;20280;-73
2022/01/28 11:28:04;;;;;;;10.70;3.73;;;;;;;;;;5074998;28;20207;-75
2022/01/28 11:30:30;;;;;;;11.00;3.57;;;;;;;;;;5074746;28;20204;-73
2022/01/28 11:33:00;;;;;;;9.40;2.77;;;;;;;;;;5074599;28;20679;-73
2022/01/28 11:35:29;;;;;;;10.83;3.63;;;;;;;;;;5074677;28;20328;-73
2022/01/28 11:38:01;;;;;;;17.13;3.57;;;;;;;;;;5074393;28;20696;-74
2022/01/28 11:40:27;;;;;;;12.87;3.60;;;;;;;;;;5074624;28;20202;-72
2022/01/28 11:43:08;;;;;;;10.87;3.87;;;;;;;;;;5074295;28;20207;-74
2022/01/28 11:45:41;;;;;;;11.87;3.70;;;;;;;;;;5074119;28;20199;-73
2022/01/28 11:48:07;;;;;;;11.23;3.47;;;;;;;;;;5074331;28;20234;-72
2022/01/28 11:50:34;;;;;;;13.00;3.90;;;;;;;;;;5074479;28;20206;-73
2022/01/28 11:53:01;;;;;;;11.30;3.63;;;;;;;;;;5074489;28;20208;-73
2022/01/28 11:55:31;;;;;;;10.53;3.67;;;;;;;;;;5074283;28;20205;-72
2022/01/28 11:57:58;;;;;;;7.87;3.00;;;;;;;;;;5074156;28;20210;-72
2022/01/28 12:00:25;;;;;;;13.77;3.87;;;;;;;;;;5074054;28;20203;-73
2022/01/28 12:02:51;;;;;;;12.00;3.50;;;;;;;;;;5073895;28;20226;-72
2022/01/28 12:05:36;;;;;;;12.77;4.03;;;;;;;;;;5073878;28;20242;-72
2022/01/28 12:08:04;;;;;;;12.60;3.50;;;;;;;;;;5073758;28;20195;-71
2022/01/28 12:10:33;;;;;;;19.50;3.77;;;;;;;;;;5073691;28;20227;-72
2022/01/28 12:13:01;;;;;;;15.37;3.70;;;;;;;;;;5073608;28;20199;-73
2022/01/28 12:15:28;;;;;;;10.47;3.20;;;;;;;;;;5073850;28;20226;-73
2022/01/28 12:18:05;;;;;;;15.97;3.43;;;;;;;;;;5071554;28;20207;-72
2022/01/28 12:20:38;;;;;;;14.63;3.70;;;;;;;;;;5073690;28;20222;-71
2022/01/28 12:23:24;;;;;;;14.27;4.13;;;;;;;;;;5073738;28;20191;-72
2022/01/28 12:25:54;;;;;;;11.97;3.77;;;;;;;;;;5073629;28;20203;-71
2022/01/28 12:28:21;;;;;;;10.47;3.27;;;;;;;;;;5073293;28;20226;-72
2022/01/28 12:30:48;;;;;;;12.27;3.23;;;;;;;;;;5073300;28;20192;-72
2022/01/28 12:33:14;;;;;;;10.13;3.00;;;;;;;;;;5072618;28;20283;-72
2022/01/28 12:35:41;;;;;;;9.07;3.70;;;;;;;;;;5073401;28;20203;-72
2022/01/28 12:38:09;;;;;;;13.33;4.17;;;;;;;;;;5073358;28;20202;-72
2022/01/28 12:40:36;;;;;;;19.03;3.87;;;;;;;;;;5073330;28;20652;-72
2022/01/28 12:43:02;;;;;;;12.30;3.27;;;;;;;;;;5073276;28;20235;-73
2022/01/28 12:45:28;;;;;;;12.73;3.37;;;;;;;;;;5073356;28;20226;-74
2022/01/28 12:47:54;;;;;;;14.00;3.93;;;;;;;;;;5072937;28;20244;-73
2022/01/28 12:50:20;;;;;;;14.40;3.70;;;;;;;;;;5073232;28;20281;-72
2022/01/28 12:52:47;;;;;;;13.60;3.50;;;;;;;;;;5073122;28;20196;-72
2022/01/28 12:55:14;;;;;;;19.23;4.17;;;;;;;;;;5072877;28;20769;-72
2022/01/28 12:57:41;;;;;;;12.70;3.67;;;;;;;;;;5071400;28;20222;-73
2022/01/28 13:00:08;;;;;;;15.03;3.57;;;;;;;;;;5073030;28;20200;-73
2022/01/28 13:02:34;;;;;;;13.07;3.60;;;;;;;;;;5072811;28;20238;-72
2022/01/28 13:05:13;;;;;;;10.73;4.00;;;;;;;;;;5072705;28;20196;-74
2022/01/28 13:10:28;;;;;;;14.53;3.93;;;;;;;;;;5072759;28;20230;-72
2022/01/28 13:13:02;;;;;;;14.30;3.37;;;;;;;;;;5072644;28;20200;-71
2022/01/28 13:15:28;;;;;;;12.90;3.27;;;;;;;;;;5072794;28;20200;-71
2022/01/28 13:17:55;;;;;;;8.10;3.00;;;;;;;;;;5072565;28;20614;-73
2022/01/28 13:20:21;;;;;;;13.33;3.60;;;;;;;;;;5072523;28;20617;-72
2022/01/28 13:22:49;;;;;;;8.00;3.07;;;;;;;;;;5072910;28;20279;-72
2022/01/28 13:25:17;;;;;;;11.10;3.40;;;;;;;;;;5072642;28;20642;-73
2022/01/28 13:27:46;;;;;;;16.90;3.17;;;;;;;;;;5072513;28;20202;-73
2022/01/28 13:30:16;;;;;;;12.30;3.27;;;;;;;;;;5072345;28;20223;-74
2022/01/28 13:32:45;;;;;;;13.70;3.07;;;;;;;;;;5072047;28;20256;-73
2022/01/28 13:35:13;;;;;;;13.43;3.60;;;;;;;;;;5072510;28;20278;-74
2022/01/28 13:37:40;;;;;;;9.77;3.30;;;;;;;;;;5072389;28;20203;-74
2022/01/28 13:40:07;;;;;;;12.37;3.10;;;;;;;;;;5072263;28;20274;-73
2022/01/28 13:42:33;;;;;;;13.40;3.50;;;;;;;;;;5072354;28;20199;-73
2022/01/28 13:45:05;;;;;;;12.77;3.53;;;;;;;;;;5072009;28;20203;-73
2022/01/28 13:47:50;;;;;;;14.30;3.60;;;;;;;;;;5072182;28;20531;-74
2022/01/28 13:50:26;;;;;;;13.47;3.50;;;;;;;;;;5072317;28;20219;-74
2022/01/28 13:55:48;;;;;;;12.40;3.10;;;;;;;;;;5072119;28;20214;-73
2022/01/28 13:58:14;;;;;;;17.20;3.90;;;;;;;;;;5072114;28;20210;-75
2022/01/28 14:00:43;;;;;;;11.17;3.67;;;;;;;;;;5072194;28;20191;-74
2022/01/28 14:03:19;;;;;;;13.30;4.60;;;;;;;;;;5072120;28;20222;-74
2022/01/28 14:05:48;;;;;;;20.30;4.37;;;;;;;;;;5072119;28;20248;-76
2022/01/28 14:08:14;;;;;;;12.63;3.53;;;;;;;;;;5072243;28;20209;-75
2022/01/28 14:10:40;;;;;;;12.70;3.90;;;;;;;;;;5071866;28;20314;-75
2022/01/28 14:13:19;;;;;;;10.70;3.40;;;;;;;;;;5072790;28;20199;-76
2022/01/28 14:16:03;;;;;;;10.77;3.17;;;;;;;;;;5072070;28;20199;-76
2022/01/28 14:18:29;;;;;;;14.13;3.50;;;;;;;;;;5070495;28;20759;-75
2022/01/28 14:20:55;;;;;;;12.10;3.57;;;;;;;;;;5072115;28;20286;-75
2022/01/28 14:23:21;;;;;;;15.83;4.17;;;;;;;;;;5072084;28;20271;-69
2022/01/28 14:25:47;;;;;;;13.67;3.30;;;;;;;;;;5071835;28;20678;-69
2022/01/28 14:30:55;;;;;;;20.60;3.93;;;;;;;;;;5071883;28;20211;-70
2022/01/28 14:33:21;;;;;;;14.43;4.37;;;;;;;;;;5071925;28;20268;-74
2022/01/28 14:35:47;;;;;;;12.70;3.63;;;;;;;;;;5072005;28;20661;-72
2022/01/28 14:38:13;;;;;;;15.77;4.47;;;;;;;;;;5071894;28;20246;-72
2022/01/28 14:40:39;;;;;;;19.10;3.57;;;;;;;;;;5071682;28;20624;-73
2022/01/28 14:43:05;;;;;;;15.60;3.47;;;;;;;;;;5071634;28;20228;-73
2022/01/28 14:45:31;;;;;;;15.23;3.97;;;;;;;;;;5071789;28;20286;-72
2022/01/28 14:47:58;;;;;;;14.97;4.13;;;;;;;;;;5071557;28;20239;-72
2022/01/28 14:50:24;;;;;;;15.67;3.53;;;;;;;;;;5071763;28;20224;-72
2022/01/28 14:52:50;;;;;;;15.77;4.00;;;;;;;;;;5071775;28;20751;-71
2022/01/28 14:55:16;;;;;;;15.03;3.70;;;;;;;;;;5071863;28;20199;-72
2022/01/28 14:57:42;;;;;;;8.50;3.70;;;;;;;;;;5075261;28;20310;-72
2022/01/28 15:00:10;;;;;;;15.37;3.90;;;;;;;;;;5075294;28;20652;-72
2022/01/28 15:02:36;;;;;;;16.13;3.77;;;;;;;;;;5075142;28;20704;-71
2022/01/28 15:05:05;;;;;;;13.43;3.60;;;;;;;;;;5074890;28;20206;-71
2022/01/28 15:07:32;;;;;;;18.67;3.60;;;;;;;;;;5075352;28;20568;-73
2022/01/28 15:10:00;;;;;;;14.10;3.53;;;;;;;;;;5075050;28;20234;-72
2022/01/28 15:12:26;;;;;;;12.73;3.40;;;;;;;;;;5075470;28;20248;-72
2022/01/28 15:14:52;;;;;;;17.17;3.80;;;;;;;;;;5075023;28;20200;-73
2022/01/28 15:17:18;;;;;;;14.70;4.13;;;;;;;;;;5075200;28;20195;-72
2022/01/28 15:19:44;;;;;;;13.10;4.03;;;;;;;;;;5075167;28;20196;-72
2022/01/28 15:22:12;;;;;;;16.20;3.50;;;;;;;;;;5075237;28;20234;-71
2022/01/28 15:24:38;;;;;;;14.63;4.20;;;;;;;;;;5075135;28;20290;-72
2022/01/28 15:27:05;;;;;;;14.77;4.23;;;;;;;;;;5074809;28;20270;-72
2022/01/28 15:35:23;;;;;;;16.70;3.53;;;;;;;;;;5074877;28;20190;-70
2022/01/28 15:37:48;;;;;;;16.00;4.70;;;;;;;;;;5074659;28;20288;-70
2022/01/28 15:40:14;;;;;;;18.83;4.77;;;;;;;;;;5074950;28;20196;-70
2022/01/28 15:42:40;;;;;;;17.30;3.53;;;;;;;;;;5074646;28;20224;-70
2022/01/28 15:45:07;;;;;;;13.67;3.47;;;;;;;;;;5074401;28;20191;-69
2022/01/28 15:47:33;;;;;;;16.80;3.90;;;;;;;;;;5074516;28;20332;-70
2022/01/28 15:49:59;;;;;;;19.27;3.43;;;;;;;;;;5074442;28;20234;-69
2022/01/28 15:52:25;;;;;;;14.00;4.00;;;;;;;;;;5074821;28;20286;-71
2022/01/28 15:54:52;;;;;;;14.17;3.37;;;;;;;;;;5074517;28;20226;-70
2022/01/28 15:57:18;;;;;;;14.80;3.70;;;;;;;;;;5074551;28;20676;-70
2022/01/28 15:59:44;;;;;;;14.97;4.27;;;;;;;;;;5074437;28;20426;-70
2022/01/28 16:02:10;;;;;;;15.70;3.37;;;;;;;;;;5074307;28;20272;-69
2022/01/28 16:04:40;;;;;;;19.10;3.77;;;;;;;;;;5074096;28;20292;-70